• Join FlightAware (Why Join?)
  • Login
  • US Flag 
02:26PM EDT


 

Airport Tracker/Info


-or-


 

Live Flight TrackerFlight Track Log ✈ PDT4414 ✈ 20-Feb-2012 ✈ KLGA - KITH

Flight Track Log - Related Links

Times and Time Zones

All times are in EST time to prevent confusion due to time zone crossing. See the PDT4414 flight status page for this flight to view local times or setup timezone preferences in your user account.

Time Position Orientation Groundspeed Altitude Reporting Facility
EST Latitude Longitude Course Direction KTS MPH feet Rate Location/Type
08:16PM 40.8267 -73.9267 100° East  Level FlightAware Approximate
08:17PM 40.8167 -73.8500 37° Northeast 129 148 2,700  Level New York TRACON
08:18PM 40.8500 -73.8167 37° Northeast 149 171 4,500 1,800 Climbing New York TRACON
08:19PM 40.8833 -73.7833 323° Northwest 144 166 6,300 1,680 Climbing New York TRACON
08:20PM 40.9000 -73.8000 288° West 149 171 7,800 1,500 Climbing New York TRACON
08:21PM 40.9167 -73.8667 294° West 162 186 9,400 1,500 Climbing New York TRACON
08:22PM 40.9333 -73.9167 306° West 165 190 10,800 540 Climbing New York TRACON
08:26PM 41.0394 -74.1108 318° Northwest 210 242 11,900 240 Climbing New York Center
08:27PM 41.0878 -74.1683 314° West 220 253 11,900  Level New York Center
08:28PM 41.1278 -74.2225 317° Northwest 220 253 11,900  Level New York Center
08:29PM 41.1781 -74.2858 319° Northwest 225 259 11,900  Level New York Center
08:30PM 41.2203 -74.3350 317° Northwest 225 259 11,900  Level New York Center
08:31PM 41.2706 -74.3983 311° West 230 265 11,900  Level New York Center
08:32PM 41.3122 -74.4611 318° Northwest 230 265 11,900  Level New York Center
08:33PM 41.3583 -74.5164 315° West 225 259 11,900  Level New York Center
08:34PM 41.4022 -74.5742 300° West 225 259 11,900  Level New York Center
08:35PM 41.4353 -74.6506 306° West 230 265 11,900  Level New York Center
08:36PM 41.4725 -74.7192 312° West 235 270 11,900  Level New York Center
08:37PM 41.5161 -74.7828 303° West 235 270 11,900  Level New York Center
08:38PM 41.5492 -74.8511 299° West 230 265 11,900  Level New York Center
08:39PM 41.5800 -74.9253 305° West 225 259 11,900  Level New York Center
08:40PM 41.6192 -74.9997 296° West 237 273 11,900  Level New York Center
08:41PM 41.6475 -75.0764 303° West 232 267 11,900  Level New York Center
08:42PM 41.6786 -75.1397 307° West 232 267 11,900  Level New York Center
08:43PM 41.7175 -75.2089 301° West 232 267 11,900  Level New York Center
08:44PM 41.7542 -75.2892 303° West 232 267 11,900  Level New York Center
08:45PM 41.7889 -75.3611 315° West 232 267 11,900  Level New York Center
08:46PM 41.8344 -75.4225 309° West 238 274 11,900  Level New York Center
08:47PM 41.8694 -75.4808 306° West 231 266 11,900  Level New York Center
08:48PM 41.9122 -75.5592 316° Northwest 231 266 11,900  Level New York Center
08:49PM 41.9578 -75.6181 316° Northwest 231 266 11,900  Level New York Center
08:50PM 42.0031 -75.6772 312° West 226 260 11,900 -120 Level New York Center
08:51PM 42.0461 -75.7419 311° West 226 260 11,700 -300 Descending New York Center
08:52PM 42.0833 -75.8006 309° West 226 260 11,300 -360 Descending New York Center
08:53PM 42.1261 -75.8708 312° West 231 266 11,000 -360 Descending New York Center
08:54PM 42.1711 -75.9389 311° West 239 275 10,700 -660 Descending New York Center
08:55PM 42.2139 -76.0064 308° West 239 275 9,700 -1,020 Descending New York Center
08:56PM 42.2564 -76.0800 312° West 239 275 8,700 -1,020 Descending New York Center
08:57PM 42.3014 -76.1481 309° West 239 275 7,700 -1,260 Descending New York Center
08:58PM 42.3419 -76.2158 302° West 239 275 6,200 -1,500 Descending New York Center
08:59PM 42.3703 -76.2772 308° West 215 247 4,700 -1,260 Descending New York Center
09:00PM 42.4031 -76.3333 315° West 192 221 3,800 -840 Descending New York Center
09:01PM 42.4344 -76.3753 305° West 181 208 3,100 -900 Descending New York Center
09:02PM 42.4592 -76.4225 310° West 166 191 2,000 3,900 Descending New York Center
09:03PM 42.4919 -76.4758 312° West 166 191 11,000 4,440 Climbing New York Center
09:04PM 42.5211 -76.5206 312° West 166 191 11,000  Level New York Center
09:05PM 42.5503 -76.5653 311° West 166 191 11,000  Level New York Center
09:06PM 42.5733 -76.6011 311° West 166 191 11,000  Level New York Center